sensor_id;sensor_type;location;lat;lon;timestamp;P1;durP1;ratioP1;P2;durP2;ratioP2
58091;SDS011;43896;48.178;11.578;2023-02-08T00:00:55;16.05;;;7.80;;
58091;SDS011;43896;48.178;11.578;2023-02-08T00:03:21;16.75;;;7.85;;
58091;SDS011;43896;48.178;11.578;2023-02-08T00:05:46;17.42;;;7.68;;
58091;SDS011;43896;48.178;11.578;2023-02-08T00:08:13;18.25;;;8.15;;
58091;SDS011;43896;48.178;11.578;2023-02-08T00:10:38;17.00;;;7.30;;
58091;SDS011;43896;48.178;11.578;2023-02-08T00:13:04;15.70;;;7.85;;
58091;SDS011;43896;48.178;11.578;2023-02-08T00:15:29;16.88;;;8.07;;
58091;SDS011;43896;48.178;11.578;2023-02-08T00:17:54;19.52;;;8.27;;
58091;SDS011;43896;48.178;11.578;2023-02-08T00:20:20;18.23;;;7.72;;
58091;SDS011;43896;48.178;11.578;2023-02-08T00:22:45;16.35;;;8.63;;
58091;SDS011;43896;48.178;11.578;2023-02-08T00:25:11;17.45;;;7.97;;
58091;SDS011;43896;48.178;11.578;2023-02-08T00:27:36;19.25;;;8.75;;
58091;SDS011;43896;48.178;11.578;2023-02-08T00:30:02;18.02;;;8.65;;
58091;SDS011;43896;48.178;11.578;2023-02-08T00:32:28;18.85;;;8.23;;
58091;SDS011;43896;48.178;11.578;2023-02-08T00:34:53;16.80;;;8.25;;
58091;SDS011;43896;48.178;11.578;2023-02-08T00:37:18;15.95;;;8.05;;
58091;SDS011;43896;48.178;11.578;2023-02-08T00:39:44;15.38;;;8.02;;
58091;SDS011;43896;48.178;11.578;2023-02-08T00:42:09;15.93;;;7.80;;
58091;SDS011;43896;48.178;11.578;2023-02-08T00:44:35;16.77;;;7.97;;
58091;SDS011;43896;48.178;11.578;2023-02-08T00:47:00;17.65;;;8.20;;
58091;SDS011;43896;48.178;11.578;2023-02-08T00:49:26;17.08;;;7.85;;
58091;SDS011;43896;48.178;11.578;2023-02-08T00:51:51;16.42;;;7.72;;
58091;SDS011;43896;48.178;11.578;2023-02-08T00:54:17;19.08;;;8.13;;
58091;SDS011;43896;48.178;11.578;2023-02-08T00:56:44;16.00;;;7.88;;
58091;SDS011;43896;48.178;11.578;2023-02-08T00:59:10;21.08;;;8.45;;
58091;SDS011;43896;48.178;11.578;2023-02-08T01:01:35;17.48;;;8.63;;
58091;SDS011;43896;48.178;11.578;2023-02-08T01:04:02;16.25;;;8.00;;
58091;SDS011;43896;48.178;11.578;2023-02-08T01:06:28;17.05;;;8.23;;
58091;SDS011;43896;48.178;11.578;2023-02-08T01:08:57;15.63;;;7.93;;
58091;SDS011;43896;48.178;11.578;2023-02-08T01:11:23;17.20;;;8.57;;
58091;SDS011;43896;48.178;11.578;2023-02-08T01:13:53;17.58;;;8.02;;
58091;SDS011;43896;48.178;11.578;2023-02-08T01:16:24;17.35;;;8.02;;
58091;SDS011;43896;48.178;11.578;2023-02-08T01:18:54;16.65;;;7.95;;
58091;SDS011;43896;48.178;11.578;2023-02-08T01:21:22;16.23;;;7.70;;
58091;SDS011;43896;48.178;11.578;2023-02-08T01:23:49;16.50;;;8.18;;
58091;SDS011;43896;48.178;11.578;2023-02-08T01:26:15;17.92;;;8.05;;
58091;SDS011;43896;48.178;11.578;2023-02-08T01:28:42;16.95;;;7.72;;
58091;SDS011;43896;48.178;11.578;2023-02-08T01:31:11;19.15;;;8.57;;
58091;SDS011;43896;48.178;11.578;2023-02-08T01:33:40;16.25;;;8.30;;
58091;SDS011;43896;48.178;11.578;2023-02-08T01:36:06;18.55;;;8.40;;
58091;SDS011;43896;48.178;11.578;2023-02-08T01:38:32;18.08;;;9.15;;
58091;SDS011;43896;48.178;11.578;2023-02-08T01:40:58;16.67;;;8.23;;
58091;SDS011;43896;48.178;11.578;2023-02-08T01:43:28;19.63;;;8.60;;
58091;SDS011;43896;48.178;11.578;2023-02-08T01:45:55;18.48;;;8.20;;
58091;SDS011;43896;48.178;11.578;2023-02-08T01:48:25;16.00;;;7.78;;
58091;SDS011;43896;48.178;11.578;2023-02-08T01:51:02;16.88;;;8.75;;
58091;SDS011;43896;48.178;11.578;2023-02-08T01:53:32;17.30;;;8.23;;
58091;SDS011;43896;48.178;11.578;2023-02-08T01:56:00;20.40;;;8.60;;
58091;SDS011;43896;48.178;11.578;2023-02-08T01:58:29;18.65;;;8.60;;
58091;SDS011;43896;48.178;11.578;2023-02-08T02:00:59;16.27;;;8.15;;
58091;SDS011;43896;48.178;11.578;2023-02-08T02:03:25;19.08;;;8.48;;
58091;SDS011;43896;48.178;11.578;2023-02-08T02:05:53;18.38;;;9.05;;
58091;SDS011;43896;48.178;11.578;2023-02-08T02:08:29;20.48;;;8.80;;
58091;SDS011;43896;48.178;11.578;2023-02-08T02:10:55;16.27;;;8.82;;
58091;SDS011;43896;48.178;11.578;2023-02-08T02:13:21;16.65;;;9.02;;
58091;SDS011;43896;48.178;11.578;2023-02-08T02:15:49;19.60;;;9.30;;
58091;SDS011;43896;48.178;11.578;2023-02-08T02:18:21;15.73;;;8.20;;
58091;SDS011;43896;48.178;11.578;2023-02-08T02:26:50;19.30;;;9.50;;
58091;SDS011;43896;48.178;11.578;2023-02-08T02:42:39;16.00;;;8.52;;
58091;SDS011;43896;48.178;11.578;2023-02-08T02:45:41;17.65;;;8.18;;
58091;SDS011;43896;48.178;11.578;2023-02-08T02:51:22;18.00;;;8.23;;
58091;SDS011;43896;48.178;11.578;2023-02-08T02:54:00;17.83;;;8.25;;
58091;SDS011;43896;48.178;11.578;2023-02-08T02:59:10;17.85;;;8.55;;
58091;SDS011;43896;48.178;11.578;2023-02-08T03:01:38;18.65;;;9.05;;
58091;SDS011;43896;48.178;11.578;2023-02-08T03:26:56;18.08;;;8.48;;
58091;SDS011;43896;48.178;11.578;2023-02-08T03:32:22;18.85;;;9.18;;
58091;SDS011;43896;48.178;11.578;2023-02-08T03:34:57;18.92;;;9.02;;
58091;SDS011;43896;48.178;11.578;2023-02-08T03:37:33;19.27;;;9.13;;
58091;SDS011;43896;48.178;11.578;2023-02-08T03:43:16;18.92;;;8.75;;
58091;SDS011;43896;48.178;11.578;2023-02-08T03:45:53;17.80;;;8.77;;
58091;SDS011;43896;48.178;11.578;2023-02-08T03:48:52;21.60;;;9.32;;
58091;SDS011;43896;48.178;11.578;2023-02-08T03:51:23;17.80;;;9.10;;
58091;SDS011;43896;48.178;11.578;2023-02-08T03:54:06;18.35;;;9.13;;
58091;SDS011;43896;48.178;11.578;2023-02-08T03:59:34;18.40;;;8.93;;
58091;SDS011;43896;48.178;11.578;2023-02-08T04:02:27;19.48;;;9.38;;
58091;SDS011;43896;48.178;11.578;2023-02-08T04:05:11;19.35;;;9.75;;
58091;SDS011;43896;48.178;11.578;2023-02-08T04:07:45;19.30;;;9.20;;
58091;SDS011;43896;48.178;11.578;2023-02-08T04:10:14;18.42;;;9.32;;
58091;SDS011;43896;48.178;11.578;2023-02-08T04:12:52;20.10;;;9.73;;
58091;SDS011;43896;48.178;11.578;2023-02-08T04:15:20;20.27;;;9.57;;
58091;SDS011;43896;48.178;11.578;2023-02-08T04:17:46;19.02;;;9.48;;
58091;SDS011;43896;48.178;11.578;2023-02-08T04:20:14;19.38;;;9.07;;
58091;SDS011;43896;48.178;11.578;2023-02-08T04:22:39;20.90;;;8.98;;
58091;SDS011;43896;48.178;11.578;2023-02-08T04:25:13;20.70;;;9.52;;
58091;SDS011;43896;48.178;11.578;2023-02-08T04:27:46;21.63;;;9.60;;
58091;SDS011;43896;48.178;11.578;2023-02-08T04:30:14;18.77;;;9.80;;
58091;SDS011;43896;48.178;11.578;2023-02-08T04:32:47;18.50;;;9.13;;
58091;SDS011;43896;48.178;11.578;2023-02-08T04:35:22;21.55;;;10.30;;
58091;SDS011;43896;48.178;11.578;2023-02-08T04:37:50;22.50;;;9.48;;
58091;SDS011;43896;48.178;11.578;2023-02-08T04:40:20;18.25;;;9.30;;
58091;SDS011;43896;48.178;11.578;2023-02-08T04:42:58;18.92;;;9.15;;
58091;SDS011;43896;48.178;11.578;2023-02-08T04:45:29;19.98;;;9.50;;
58091;SDS011;43896;48.178;11.578;2023-02-08T04:48:02;20.98;;;9.77;;
58091;SDS011;43896;48.178;11.578;2023-02-08T04:50:38;20.10;;;9.57;;
58091;SDS011;43896;48.178;11.578;2023-02-08T04:53:06;17.00;;;8.88;;
58091;SDS011;43896;48.178;11.578;2023-02-08T04:55:32;21.60;;;9.50;;
58091;SDS011;43896;48.178;11.578;2023-02-08T04:57:57;20.80;;;9.10;;
58091;SDS011;43896;48.178;11.578;2023-02-08T05:00:22;20.55;;;9.70;;
58091;SDS011;43896;48.178;11.578;2023-02-08T05:02:51;19.65;;;9.48;;
58091;SDS011;43896;48.178;11.578;2023-02-08T05:05:17;19.20;;;9.65;;
58091;SDS011;43896;48.178;11.578;2023-02-08T05:07:42;20.45;;;9.60;;
58091;SDS011;43896;48.178;11.578;2023-02-08T05:10:08;17.85;;;9.10;;
58091;SDS011;43896;48.178;11.578;2023-02-08T05:12:33;20.20;;;9.85;;
58091;SDS011;43896;48.178;11.578;2023-02-08T05:14:59;19.40;;;9.77;;
58091;SDS011;43896;48.178;11.578;2023-02-08T05:17:24;21.23;;;9.95;;
58091;SDS011;43896;48.178;11.578;2023-02-08T05:19:49;18.95;;;9.50;;
58091;SDS011;43896;48.178;11.578;2023-02-08T05:22:15;21.25;;;9.95;;
58091;SDS011;43896;48.178;11.578;2023-02-08T05:24:40;20.45;;;9.55;;
58091;SDS011;43896;48.178;11.578;2023-02-08T05:27:06;21.83;;;9.90;;
58091;SDS011;43896;48.178;11.578;2023-02-08T05:29:31;21.85;;;10.32;;
58091;SDS011;43896;48.178;11.578;2023-02-08T05:31:59;26.05;;;9.95;;
58091;SDS011;43896;48.178;11.578;2023-02-08T05:34:25;21.67;;;10.00;;
58091;SDS011;43896;48.178;11.578;2023-02-08T05:36:50;18.88;;;9.75;;
58091;SDS011;43896;48.178;11.578;2023-02-08T05:39:15;22.27;;;11.00;;
58091;SDS011;43896;48.178;11.578;2023-02-08T05:42:00;21.60;;;9.90;;
58091;SDS011;43896;48.178;11.578;2023-02-08T05:44:25;22.15;;;10.73;;
58091;SDS011;43896;48.178;11.578;2023-02-08T05:46:50;23.42;;;9.93;;
58091;SDS011;43896;48.178;11.578;2023-02-08T05:49:16;22.25;;;10.35;;
58091;SDS011;43896;48.178;11.578;2023-02-08T05:51:41;21.35;;;9.93;;
58091;SDS011;43896;48.178;11.578;2023-02-08T05:54:07;20.75;;;10.60;;
58091;SDS011;43896;48.178;11.578;2023-02-08T05:56:34;22.20;;;10.75;;
58091;SDS011;43896;48.178;11.578;2023-02-08T05:59:00;22.63;;;11.55;;
58091;SDS011;43896;48.178;11.578;2023-02-08T06:01:26;23.23;;;11.18;;
58091;SDS011;43896;48.178;11.578;2023-02-08T06:03:51;22.27;;;10.77;;
58091;SDS011;43896;48.178;11.578;2023-02-08T06:06:18;24.30;;;10.70;;
58091;SDS011;43896;48.178;11.578;2023-02-08T06:08:43;23.08;;;10.02;;
58091;SDS011;43896;48.178;11.578;2023-02-08T06:11:08;22.30;;;11.02;;
58091;SDS011;43896;48.178;11.578;2023-02-08T06:13:34;22.05;;;10.50;;
58091;SDS011;43896;48.178;11.578;2023-02-08T06:15:59;22.48;;;10.02;;
58091;SDS011;43896;48.178;11.578;2023-02-08T06:18:24;26.10;;;11.65;;
58091;SDS011;43896;48.178;11.578;2023-02-08T06:20:53;24.58;;;11.75;;
58091;SDS011;43896;48.178;11.578;2023-02-08T06:23:19;22.85;;;11.15;;
58091;SDS011;43896;48.178;11.578;2023-02-08T06:25:45;24.10;;;10.55;;
58091;SDS011;43896;48.178;11.578;2023-02-08T06:28:10;24.67;;;11.13;;
58091;SDS011;43896;48.178;11.578;2023-02-08T06:30:36;23.90;;;11.60;;
58091;SDS011;43896;48.178;11.578;2023-02-08T06:33:02;23.55;;;11.23;;
58091;SDS011;43896;48.178;11.578;2023-02-08T06:35:28;23.55;;;11.02;;
58091;SDS011;43896;48.178;11.578;2023-02-08T06:37:53;22.33;;;10.98;;
58091;SDS011;43896;48.178;11.578;2023-02-08T06:40:19;21.70;;;11.05;;
58091;SDS011;43896;48.178;11.578;2023-02-08T06:42:45;21.95;;;11.20;;
58091;SDS011;43896;48.178;11.578;2023-02-08T06:45:11;27.40;;;11.57;;
58091;SDS011;43896;48.178;11.578;2023-02-08T06:47:36;20.95;;;10.82;;
58091;SDS011;43896;48.178;11.578;2023-02-08T06:50:02;21.58;;;11.10;;
58091;SDS011;43896;48.178;11.578;2023-02-08T06:52:27;23.83;;;11.32;;
58091;SDS011;43896;48.178;11.578;2023-02-08T06:54:53;22.58;;;10.98;;
58091;SDS011;43896;48.178;11.578;2023-02-08T06:57:18;25.83;;;11.68;;
58091;SDS011;43896;48.178;11.578;2023-02-08T06:59:44;20.80;;;10.60;;
58091;SDS011;43896;48.178;11.578;2023-02-08T07:02:13;25.70;;;12.20;;
58091;SDS011;43896;48.178;11.578;2023-02-08T07:04:41;22.02;;;11.02;;
58091;SDS011;43896;48.178;11.578;2023-02-08T07:07:06;23.85;;;11.52;;
58091;SDS011;43896;48.178;11.578;2023-02-08T07:09:32;24.63;;;11.75;;
58091;SDS011;43896;48.178;11.578;2023-02-08T07:11:59;23.77;;;11.90;;
58091;SDS011;43896;48.178;11.578;2023-02-08T07:16:54;26.77;;;11.13;;
58091;SDS011;43896;48.178;11.578;2023-02-08T07:19:19;21.63;;;11.20;;
58091;SDS011;43896;48.178;11.578;2023-02-08T07:21:44;24.83;;;11.73;;
58091;SDS011;43896;48.178;11.578;2023-02-08T07:24:09;21.38;;;10.95;;
58091;SDS011;43896;48.178;11.578;2023-02-08T07:26:35;22.30;;;11.30;;
58091;SDS011;43896;48.178;11.578;2023-02-08T07:29:00;23.52;;;11.32;;
58091;SDS011;43896;48.178;11.578;2023-02-08T07:31:25;20.65;;;10.68;;
58091;SDS011;43896;48.178;11.578;2023-02-08T07:33:50;23.65;;;11.05;;
58091;SDS011;43896;48.178;11.578;2023-02-08T07:36:16;25.77;;;12.63;;
58091;SDS011;43896;48.178;11.578;2023-02-08T07:38:41;24.00;;;11.63;;
58091;SDS011;43896;48.178;11.578;2023-02-08T07:41:07;20.50;;;11.35;;
58091;SDS011;43896;48.178;11.578;2023-02-08T07:43:36;24.35;;;11.13;;
58091;SDS011;43896;48.178;11.578;2023-02-08T07:46:10;22.63;;;11.13;;
58091;SDS011;43896;48.178;11.578;2023-02-08T07:48:40;24.33;;;11.13;;
58091;SDS011;43896;48.178;11.578;2023-02-08T07:51:06;22.67;;;11.50;;
58091;SDS011;43896;48.178;11.578;2023-02-08T07:53:32;21.13;;;11.00;;
58091;SDS011;43896;48.178;11.578;2023-02-08T07:55:58;22.17;;;10.80;;
58091;SDS011;43896;48.178;11.578;2023-02-08T07:58:23;22.70;;;11.00;;
58091;SDS011;43896;48.178;11.578;2023-02-08T08:00:49;22.52;;;11.32;;
58091;SDS011;43896;48.178;11.578;2023-02-08T08:03:14;24.58;;;10.77;;
58091;SDS011;43896;48.178;11.578;2023-02-08T08:05:40;22.77;;;11.27;;
58091;SDS011;43896;48.178;11.578;2023-02-08T08:08:06;20.88;;;11.35;;
58091;SDS011;43896;48.178;11.578;2023-02-08T08:10:31;21.70;;;10.52;;
58091;SDS011;43896;48.178;11.578;2023-02-08T08:12:57;22.38;;;11.35;;
58091;SDS011;43896;48.178;11.578;2023-02-08T08:15:22;20.45;;;10.57;;
58091;SDS011;43896;48.178;11.578;2023-02-08T08:17:47;21.02;;;10.80;;
58091;SDS011;43896;48.178;11.578;2023-02-08T08:20:13;21.70;;;11.50;;
58091;SDS011;43896;48.178;11.578;2023-02-08T08:22:38;20.52;;;10.73;;
58091;SDS011;43896;48.178;11.578;2023-02-08T08:25:03;22.70;;;10.88;;
58091;SDS011;43896;48.178;11.578;2023-02-08T08:27:29;21.92;;;11.25;;
58091;SDS011;43896;48.178;11.578;2023-02-08T08:29:54;22.60;;;10.55;;
58091;SDS011;43896;48.178;11.578;2023-02-08T08:32:20;22.92;;;11.65;;
58091;SDS011;43896;48.178;11.578;2023-02-08T08:34:45;21.50;;;11.43;;
58091;SDS011;43896;48.178;11.578;2023-02-08T08:37:10;20.83;;;11.00;;
58091;SDS011;43896;48.178;11.578;2023-02-08T08:39:35;21.85;;;10.80;;
58091;SDS011;43896;48.178;11.578;2023-02-08T08:42:01;21.98;;;11.18;;
58091;SDS011;43896;48.178;11.578;2023-02-08T08:44:28;23.63;;;10.65;;
58091;SDS011;43896;48.178;11.578;2023-02-08T08:46:56;22.90;;;11.35;;
58091;SDS011;43896;48.178;11.578;2023-02-08T08:49:23;20.55;;;10.73;;
58091;SDS011;43896;48.178;11.578;2023-02-08T08:51:49;21.20;;;10.05;;
58091;SDS011;43896;48.178;11.578;2023-02-08T08:54:15;22.30;;;10.85;;
58091;SDS011;43896;48.178;11.578;2023-02-08T08:56:41;21.42;;;10.60;;
58091;SDS011;43896;48.178;11.578;2023-02-08T08:59:07;23.85;;;11.10;;
58091;SDS011;43896;48.178;11.578;2023-02-08T09:01:32;21.08;;;10.30;;
58091;SDS011;43896;48.178;11.578;2023-02-08T09:03:57;21.13;;;10.95;;
58091;SDS011;43896;48.178;11.578;2023-02-08T09:06:22;19.20;;;10.60;;
58091;SDS011;43896;48.178;11.578;2023-02-08T09:08:48;21.65;;;11.23;;
58091;SDS011;43896;48.178;11.578;2023-02-08T09:11:13;20.63;;;10.95;;
58091;SDS011;43896;48.178;11.578;2023-02-08T09:13:39;20.27;;;11.30;;
58091;SDS011;43896;48.178;11.578;2023-02-08T09:16:12;21.35;;;11.00;;
58091;SDS011;43896;48.178;11.578;2023-02-08T09:18:39;20.38;;;10.63;;
58091;SDS011;43896;48.178;11.578;2023-02-08T09:21:09;21.58;;;10.70;;
58091;SDS011;43896;48.178;11.578;2023-02-08T09:23:36;20.65;;;10.68;;
58091;SDS011;43896;48.178;11.578;2023-02-08T09:26:03;21.92;;;10.68;;
58091;SDS011;43896;48.178;11.578;2023-02-08T09:28:29;22.42;;;11.00;;
58091;SDS011;43896;48.178;11.578;2023-02-08T09:30:54;22.52;;;10.85;;
58091;SDS011;43896;48.178;11.578;2023-02-08T09:33:19;20.15;;;10.30;;
58091;SDS011;43896;48.178;11.578;2023-02-08T09:35:45;22.35;;;11.00;;
58091;SDS011;43896;48.178;11.578;2023-02-08T09:38:10;20.38;;;10.60;;
58091;SDS011;43896;48.178;11.578;2023-02-08T09:40:37;20.10;;;10.45;;
58091;SDS011;43896;48.178;11.578;2023-02-08T09:43:16;21.90;;;11.30;;
58091;SDS011;43896;48.178;11.578;2023-02-08T09:45:57;20.40;;;10.40;;
58091;SDS011;43896;48.178;11.578;2023-02-08T09:48:30;20.10;;;10.82;;
58091;SDS011;43896;48.178;11.578;2023-02-08T09:51:03;22.80;;;10.88;;
58091;SDS011;43896;48.178;11.578;2023-02-08T09:53:40;22.92;;;11.43;;
58091;SDS011;43896;48.178;11.578;2023-02-08T09:56:18;20.27;;;10.65;;
58091;SDS011;43896;48.178;11.578;2023-02-08T09:58:50;21.40;;;11.63;;
58091;SDS011;43896;48.178;11.578;2023-02-08T10:01:26;21.42;;;11.25;;
58091;SDS011;43896;48.178;11.578;2023-02-08T10:03:56;21.33;;;11.15;;
58091;SDS011;43896;48.178;11.578;2023-02-08T10:06:26;19.60;;;10.98;;
58091;SDS011;43896;48.178;11.578;2023-02-08T10:08:54;20.55;;;11.00;;
58091;SDS011;43896;48.178;11.578;2023-02-08T10:11:22;19.85;;;11.07;;
58091;SDS011;43896;48.178;11.578;2023-02-08T10:19:41;20.30;;;11.07;;
58091;SDS011;43896;48.178;11.578;2023-02-08T10:22:28;20.93;;;11.30;;
58091;SDS011;43896;48.178;11.578;2023-02-08T10:30:16;19.90;;;11.05;;
58091;SDS011;43896;48.178;11.578;2023-02-08T10:35:27;21.48;;;10.63;;
58091;SDS011;43896;48.178;11.578;2023-02-08T10:40:43;20.13;;;10.93;;
58091;SDS011;43896;48.178;11.578;2023-02-08T10:43:18;21.65;;;11.77;;
58091;SDS011;43896;48.178;11.578;2023-02-08T10:46:11;19.58;;;10.75;;
58091;SDS011;43896;48.178;11.578;2023-02-08T10:48:49;23.33;;;11.52;;
58091;SDS011;43896;48.178;11.578;2023-02-08T10:51:19;21.15;;;11.35;;
58091;SDS011;43896;48.178;11.578;2023-02-08T10:53:45;21.60;;;11.93;;
58091;SDS011;43896;48.178;11.578;2023-02-08T10:56:20;21.58;;;11.13;;
58091;SDS011;43896;48.178;11.578;2023-02-08T10:58:59;20.38;;;11.20;;
58091;SDS011;43896;48.178;11.578;2023-02-08T11:01:29;21.23;;;11.07;;
58091;SDS011;43896;48.178;11.578;2023-02-08T11:04:01;19.98;;;11.30;;
58091;SDS011;43896;48.178;11.578;2023-02-08T11:06:31;21.73;;;11.70;;
58091;SDS011;43896;48.178;11.578;2023-02-08T11:08:56;21.17;;;11.57;;
58091;SDS011;43896;48.178;11.578;2023-02-08T11:11:23;20.75;;;11.60;;
58091;SDS011;43896;48.178;11.578;2023-02-08T11:13:51;22.23;;;11.73;;
58091;SDS011;43896;48.178;11.578;2023-02-08T11:16:21;20.92;;;10.98;;
58091;SDS011;43896;48.178;11.578;2023-02-08T11:18:50;21.63;;;11.57;;
58091;SDS011;43896;48.178;11.578;2023-02-08T11:21:33;21.35;;;11.77;;
58091;SDS011;43896;48.178;11.578;2023-02-08T11:26:39;21.65;;;11.52;;
58091;SDS011;43896;48.178;11.578;2023-02-08T11:29:22;22.95;;;12.13;;
58091;SDS011;43896;48.178;11.578;2023-02-08T11:36:51;21.10;;;11.73;;
58091;SDS011;43896;48.178;11.578;2023-02-08T11:41:56;21.83;;;12.00;;
58091;SDS011;43896;48.178;11.578;2023-02-08T11:44:29;24.87;;;12.53;;
58091;SDS011;43896;48.178;11.578;2023-02-08T11:46:58;22.83;;;12.52;;
58091;SDS011;43896;48.178;11.578;2023-02-08T11:49:31;22.25;;;12.18;;
58091;SDS011;43896;48.178;11.578;2023-02-08T11:52:03;23.15;;;11.77;;
58091;SDS011;43896;48.178;11.578;2023-02-08T11:57:09;21.75;;;11.98;;
58091;SDS011;43896;48.178;11.578;2023-02-08T11:59:44;24.92;;;12.07;;
58091;SDS011;43896;48.178;11.578;2023-02-08T12:02:29;24.83;;;12.05;;
58091;SDS011;43896;48.178;11.578;2023-02-08T12:04:59;21.30;;;11.77;;
58091;SDS011;43896;48.178;11.578;2023-02-08T12:13:16;24.05;;;13.10;;
58091;SDS011;43896;48.178;11.578;2023-02-08T12:18:44;23.45;;;12.48;;
58091;SDS011;43896;48.178;11.578;2023-02-08T12:21:45;21.77;;;11.98;;
58091;SDS011;43896;48.178;11.578;2023-02-08T12:29:40;24.92;;;12.90;;
58091;SDS011;43896;48.178;11.578;2023-02-08T12:37:44;22.08;;;12.15;;
58091;SDS011;43896;48.178;11.578;2023-02-08T12:40:45;25.05;;;12.75;;
58091;SDS011;43896;48.178;11.578;2023-02-08T12:48:21;24.52;;;12.82;;
58091;SDS011;43896;48.178;11.578;2023-02-08T12:53:45;22.48;;;12.38;;
58091;SDS011;43896;48.178;11.578;2023-02-08T12:56:19;25.13;;;12.68;;
58091;SDS011;43896;48.178;11.578;2023-02-08T12:58:49;22.58;;;12.45;;
58091;SDS011;43896;48.178;11.578;2023-02-08T13:01:51;21.15;;;12.00;;
58091;SDS011;43896;48.178;11.578;2023-02-08T13:04:19;23.55;;;12.35;;
58091;SDS011;43896;48.178;11.578;2023-02-08T13:06:57;23.95;;;12.02;;
58091;SDS011;43896;48.178;11.578;2023-02-08T13:11:58;24.35;;;12.68;;
58091;SDS011;43896;48.178;11.578;2023-02-08T13:14:41;21.60;;;11.95;;
58091;SDS011;43896;48.178;11.578;2023-02-08T13:17:24;25.98;;;12.00;;
58091;SDS011;43896;48.178;11.578;2023-02-08T13:22:33;21.92;;;11.35;;
58091;SDS011;43896;48.178;11.578;2023-02-08T13:25:02;22.52;;;11.57;;
58091;SDS011;43896;48.178;11.578;2023-02-08T13:27:32;20.85;;;11.63;;
58091;SDS011;43896;48.178;11.578;2023-02-08T13:29:57;20.73;;;11.35;;
58091;SDS011;43896;48.178;11.578;2023-02-08T13:32:27;20.50;;;11.07;;
58091;SDS011;43896;48.178;11.578;2023-02-08T13:35:02;26.88;;;12.10;;
58091;SDS011;43896;48.178;11.578;2023-02-08T13:37:36;20.40;;;11.23;;
58091;SDS011;43896;48.178;11.578;2023-02-08T13:43:05;21.48;;;11.00;;
58091;SDS011;43896;48.178;11.578;2023-02-08T13:45:41;21.95;;;10.57;;
58091;SDS011;43896;48.178;11.578;2023-02-08T13:48:13;21.05;;;11.20;;
58091;SDS011;43896;48.178;11.578;2023-02-08T13:53:11;21.52;;;11.35;;
58091;SDS011;43896;48.178;11.578;2023-02-08T13:58:28;20.63;;;11.32;;
58091;SDS011;43896;48.178;11.578;2023-02-08T14:01:05;20.00;;;10.75;;
58091;SDS011;43896;48.178;11.578;2023-02-08T14:06:01;21.27;;;10.82;;
58091;SDS011;43896;48.178;11.578;2023-02-08T14:14:05;20.92;;;10.27;;
58091;SDS011;43896;48.178;11.578;2023-02-08T14:16:40;21.08;;;10.68;;
58091;SDS011;43896;48.178;11.578;2023-02-08T14:21:49;18.50;;;9.73;;
58091;SDS011;43896;48.178;11.578;2023-02-08T14:24:29;18.20;;;9.88;;
58091;SDS011;43896;48.178;11.578;2023-02-08T14:32:40;19.25;;;10.20;;
58091;SDS011;43896;48.178;11.578;2023-02-08T14:35:16;20.63;;;9.90;;
58091;SDS011;43896;48.178;11.578;2023-02-08T14:37:45;18.92;;;9.75;;
58091;SDS011;43896;48.178;11.578;2023-02-08T14:45:36;18.20;;;9.27;;
58091;SDS011;43896;48.178;11.578;2023-02-08T14:48:13;18.38;;;9.52;;
58091;SDS011;43896;48.178;11.578;2023-02-08T14:50:49;19.20;;;9.65;;
58091;SDS011;43896;48.178;11.578;2023-02-08T14:53:23;16.65;;;9.07;;
58091;SDS011;43896;48.178;11.578;2023-02-08T14:55:55;20.70;;;9.57;;
58091;SDS011;43896;48.178;11.578;2023-02-08T14:58:26;19.20;;;8.82;;
58091;SDS011;43896;48.178;11.578;2023-02-08T15:00:54;16.47;;;8.70;;
58091;SDS011;43896;48.178;11.578;2023-02-08T15:03:23;16.08;;;8.50;;
58091;SDS011;43896;48.178;11.578;2023-02-08T15:08:35;18.20;;;9.38;;
58091;SDS011;43896;48.178;11.578;2023-02-08T15:11:01;17.58;;;8.65;;
58091;SDS011;43896;48.178;11.578;2023-02-08T15:13:27;17.33;;;9.00;;
58091;SDS011;43896;48.178;11.578;2023-02-08T15:15:54;18.42;;;9.10;;
58091;SDS011;43896;48.178;11.578;2023-02-08T15:18:27;16.05;;;8.13;;
58091;SDS011;43896;48.178;11.578;2023-02-08T15:20:57;15.57;;;9.13;;
58091;SDS011;43896;48.178;11.578;2023-02-08T15:23:26;17.20;;;9.27;;
58091;SDS011;43896;48.178;11.578;2023-02-08T15:25:55;15.75;;;8.73;;
58091;SDS011;43896;48.178;11.578;2023-02-08T15:28:29;18.25;;;9.30;;
58091;SDS011;43896;48.178;11.578;2023-02-08T15:31:06;17.40;;;8.40;;
58091;SDS011;43896;48.178;11.578;2023-02-08T15:33:34;18.55;;;8.60;;
58091;SDS011;43896;48.178;11.578;2023-02-08T15:38:38;16.05;;;8.43;;
58091;SDS011;43896;48.178;11.578;2023-02-08T15:41:09;19.77;;;8.38;;
58091;SDS011;43896;48.178;11.578;2023-02-08T15:43:40;17.70;;;8.85;;
58091;SDS011;43896;48.178;11.578;2023-02-08T15:46:20;17.77;;;8.88;;
58091;SDS011;43896;48.178;11.578;2023-02-08T15:48:47;16.05;;;8.65;;
58091;SDS011;43896;48.178;11.578;2023-02-08T15:51:14;17.20;;;8.50;;
58091;SDS011;43896;48.178;11.578;2023-02-08T15:53:44;17.20;;;8.65;;
58091;SDS011;43896;48.178;11.578;2023-02-08T15:56:16;16.75;;;8.73;;
58091;SDS011;43896;48.178;11.578;2023-02-08T15:58:50;16.58;;;8.40;;
58091;SDS011;43896;48.178;11.578;2023-02-08T16:01:18;19.38;;;8.32;;
58091;SDS011;43896;48.178;11.578;2023-02-08T16:03:46;16.70;;;8.68;;
58091;SDS011;43896;48.178;11.578;2023-02-08T16:06:18;16.17;;;8.43;;
58091;SDS011;43896;48.178;11.578;2023-02-08T16:08:48;19.95;;;8.48;;
58091;SDS011;43896;48.178;11.578;2023-02-08T16:11:20;37.60;;;15.93;;
58091;SDS011;43896;48.178;11.578;2023-02-08T16:13:48;18.35;;;9.57;;
58091;SDS011;43896;48.178;11.578;2023-02-08T16:16:23;18.55;;;9.90;;
58091;SDS011;43896;48.178;11.578;2023-02-08T16:19:01;19.52;;;9.80;;
58091;SDS011;43896;48.178;11.578;2023-02-08T16:21:42;20.27;;;9.05;;
58091;SDS011;43896;48.178;11.578;2023-02-08T16:26:40;16.75;;;9.07;;
58091;SDS011;43896;48.178;11.578;2023-02-08T16:29:22;16.63;;;8.85;;
58091;SDS011;43896;48.178;11.578;2023-02-08T16:31:56;20.25;;;8.80;;
58091;SDS011;43896;48.178;11.578;2023-02-08T16:34:35;19.80;;;8.52;;
58091;SDS011;43896;48.178;11.578;2023-02-08T16:37:03;19.67;;;9.60;;
58091;SDS011;43896;48.178;11.578;2023-02-08T16:39:37;17.05;;;8.45;;
58091;SDS011;43896;48.178;11.578;2023-02-08T16:42:21;18.60;;;9.75;;
58091;SDS011;43896;48.178;11.578;2023-02-08T16:45:23;20.60;;;10.48;;
58091;SDS011;43896;48.178;11.578;2023-02-08T16:50:16;17.98;;;9.70;;
58091;SDS011;43896;48.178;11.578;2023-02-08T16:52:44;20.80;;;9.02;;
58091;SDS011;43896;48.178;11.578;2023-02-08T16:55:22;15.75;;;8.10;;
58091;SDS011;43896;48.178;11.578;2023-02-08T16:57:51;18.88;;;8.45;;
58091;SDS011;43896;48.178;11.578;2023-02-08T17:00:27;17.83;;;8.43;;
58091;SDS011;43896;48.178;11.578;2023-02-08T17:02:57;21.85;;;8.73;;
58091;SDS011;43896;48.178;11.578;2023-02-08T17:05:25;17.20;;;8.40;;
58091;SDS011;43896;48.178;11.578;2023-02-08T17:07:53;19.23;;;8.73;;
58091;SDS011;43896;48.178;11.578;2023-02-08T17:10:28;15.98;;;7.97;;
58091;SDS011;43896;48.178;11.578;2023-02-08T17:12:56;16.63;;;8.43;;